Time;durP1;ratioP1;P1;durP2;ratioP2;P2;SDS_P1;SDS_P2;PMS_P1;PMS_P2;Temp;Humidity;BMP_temperature;BMP_pressure;BME280_temperature;BME280_humidity;BME280_pressure;Samples;Min_cycle;Max_cycle;Signal;HPM_P1;HPM_P2
2023/06/27 00:01:23;;;;;;;7.70;1.80;;;;;;;25.73;32.84;97765.31;5089112;28;20425;-70
2023/06/27 00:03:51;;;;;;;7.63;2.70;;;;;;;25.72;33.30;97764.50;5098537;28;20193;-70
2023/06/27 00:06:19;;;;;;;2.53;1.90;;;;;;;25.74;33.42;97766.94;5088868;28;20220;-70
2023/06/27 00:08:48;;;;;;;5.17;2.30;;;;;;;25.71;33.36;97770.94;5085524;28;20480;-70
2023/06/27 00:11:14;;;;;;;4.63;2.30;;;;;;;25.69;33.60;97764.16;5093596;28;20427;-69
2023/06/27 00:13:41;;;;;;;3.80;2.53;;;;;;;25.67;33.76;97767.06;5088538;28;20522;-69
2023/06/27 00:16:13;;;;;;;2.90;1.87;;;;;;;25.66;33.73;97767.31;5087366;28;20629;-70
2023/06/27 00:18:40;;;;;;;2.70;2.20;;;;;;;25.61;33.66;97766.16;5087397;28;20481;-69
2023/06/27 00:21:06;;;;;;;4.37;2.60;;;;;;;25.61;33.60;97766.16;5088256;28;20531;-69
2023/06/27 00:23:34;;;;;;;4.67;2.00;;;;;;;25.60;33.63;97764.53;5087541;28;20920;-69
2023/06/27 00:26:01;;;;;;;3.83;2.20;;;;;;;25.57;33.72;97758.81;5087276;28;20456;-68
2023/06/27 00:28:27;;;;;;;4.07;3.43;;;;;;;25.61;33.73;97771.50;5088591;28;20532;-69
2023/06/27 00:30:52;;;;;;;6.20;2.67;;;;;;;25.58;33.80;97766.63;5087159;28;20446;-69
2023/06/27 00:33:18;;;;;;;5.97;3.20;;;;;;;25.62;33.89;97766.97;5088994;28;20988;-69
2023/06/27 00:35:43;;;;;;;4.83;3.30;;;;;;;25.60;33.50;97763.72;5087479;28;20657;-69
2023/06/27 00:38:09;;;;;;;10.87;7.77;;;;;;;25.63;33.78;97771.31;5086213;28;20268;-69
2023/06/27 00:40:34;;;;;;;10.90;7.03;;;;;;;25.66;33.63;97772.69;5087266;28;20204;-69
2023/06/27 00:43:00;;;;;;;10.50;9.00;;;;;;;25.68;33.80;97775.97;5089384;28;20185;-69
2023/06/27 00:45:25;;;;;;;14.00;11.20;;;;;;;25.69;33.82;97769.53;5091908;28;20861;-68
2023/06/27 00:47:51;;;;;;;7.57;5.30;;;;;;;25.68;33.65;97768.72;5088283;28;20620;-69
2023/06/27 00:50:17;;;;;;;9.20;5.60;;;;;;;25.70;33.72;97773.84;5086687;28;20668;-69
2023/06/27 00:52:43;;;;;;;5.87;4.20;;;;;;;25.66;33.88;97764.63;5069624;28;20512;-68
2023/06/27 00:55:09;;;;;;;7.60;3.90;;;;;;;25.65;34.13;97776.41;5088470;28;20448;-69
2023/06/27 00:57:34;;;;;;;9.37;3.33;;;;;;;25.61;33.79;97776.88;5086678;28;20193;-70
2023/06/27 01:00:00;;;;;;;7.07;4.30;;;;;;;25.64;34.07;97774.78;5083879;28;20194;-68
2023/06/27 01:02:25;;;;;;;4.57;3.27;;;;;;;25.61;33.81;97781.44;5092192;28;20215;-69
2023/06/27 01:04:54;;;;;;;8.97;4.03;;;;;;;25.60;33.77;97785.19;5091279;28;20213;-69
2023/06/27 01:07:26;;;;;;;6.40;3.53;;;;;;;25.57;34.08;97786.47;5090742;28;20249;-69
2023/06/27 01:09:52;;;;;;;3.37;2.57;;;;;;;25.55;33.72;97785.91;5068746;28;20566;-70
2023/06/27 01:12:23;;;;;;;4.80;3.03;;;;;;;25.53;34.14;97793.34;5063665;28;21044;-69
2023/06/27 01:14:50;;;;;;;9.67;4.93;;;;;;;25.55;33.81;97783.22;5087276;28;20451;-68
2023/06/27 01:17:16;;;;;;;6.37;4.47;;;;;;;25.57;33.96;97797.22;5086015;28;20964;-70
2023/06/27 01:19:44;;;;;;;6.67;4.20;;;;;;;25.58;34.17;97796.13;5085643;28;20489;-70
2023/06/27 01:22:13;;;;;;;6.77;4.50;;;;;;;25.59;33.87;97792.41;5093157;28;20435;-69
2023/06/27 01:24:39;;;;;;;7.93;4.87;;;;;;;25.58;34.16;97785.41;5074777;28;20431;-69
2023/06/27 01:27:04;;;;;;;7.50;4.40;;;;;;;25.57;33.83;97789.16;5085526;28;20434;-70
2023/06/27 01:29:30;;;;;;;6.63;3.50;;;;;;;25.59;34.11;97791.59;5048614;28;1087625;-69
2023/06/27 01:32:04;;;;;;;7.30;3.80;;;;;;;25.59;34.02;97784.34;5086921;28;20233;-69
2023/06/27 01:34:34;;;;;;;10.83;7.47;;;;;;;25.58;33.78;97790.75;5076743;28;20193;-68
2023/06/27 01:37:06;;;;;;;6.50;4.57;;;;;;;25.56;34.02;97784.84;5086596;28;20438;-69
2023/06/27 01:39:56;;;;;;;9.00;5.73;;;;;;;25.55;34.02;97788.56;5071240;28;20471;-69
2023/06/27 01:42:27;;;;;;;5.40;3.20;;;;;;;25.46;33.98;97781.91;5073045;28;20420;-70
2023/06/27 01:44:53;;;;;;;5.53;2.70;;;;;;;25.43;34.05;97787.78;5069595;28;20475;-68
2023/06/27 01:47:20;;;;;;;8.50;3.50;;;;;;;25.44;34.13;97792.09;5086700;28;20415;-68
2023/06/27 01:49:45;;;;;;;6.17;3.10;;;;;;;25.41;34.44;97793.34;5082557;28;20509;-69
2023/06/27 01:52:12;;;;;;;3.90;2.47;;;;;;;25.38;34.49;97784.94;5053110;28;20551;-69
2023/06/27 01:54:42;;;;;;;4.83;4.33;;;;;;;25.40;34.11;97790.88;5093891;28;20231;-69
2023/06/27 01:57:08;;;;;;;6.70;3.00;;;;;;;25.37;34.30;97775.25;5078198;28;20502;-69
2023/06/27 01:59:33;;;;;;;5.13;3.20;;;;;;;25.41;34.30;97781.81;5087329;28;20424;-68
2023/06/27 02:01:59;;;;;;;6.40;3.20;;;;;;;25.39;34.08;97781.19;5086743;28;20250;-69
2023/06/27 02:04:24;;;;;;;5.80;4.30;;;;;;;25.38;34.58;97783.09;5087591;28;20552;-69
2023/06/27 02:06:50;;;;;;;8.07;4.73;;;;;;;25.39;34.47;97778.53;5090130;28;20282;-71
2023/06/27 02:09:15;;;;;;;7.53;4.43;;;;;;;25.40;34.35;97780.16;5085090;28;20190;-69
2023/06/27 02:11:41;;;;;;;9.53;3.10;;;;;;;25.34;34.29;97781.06;5093766;28;20493;-69
2023/06/27 02:14:06;;;;;;;7.33;2.43;;;;;;;25.32;34.18;97777.84;5065540;28;20178;-69
2023/06/27 02:16:32;;;;;;;6.93;2.70;;;;;;;25.26;34.42;97783.06;5067998;28;20694;-69
2023/06/27 02:18:57;;;;;;;4.17;3.20;;;;;;;25.25;34.42;97784.13;5086362;28;20181;-68
2023/06/27 02:21:23;;;;;;;6.10;2.90;;;;;;;25.25;34.30;97777.97;5087314;28;20189;-70
2023/06/27 02:23:48;;;;;;;5.20;3.87;;;;;;;25.26;34.67;97775.03;5087401;28;20262;-68
2023/06/27 02:26:14;;;;;;;9.90;3.70;;;;;;;25.26;34.58;97775.03;5085651;28;20214;-69
2023/06/27 02:28:39;;;;;;;6.33;2.80;;;;;;;25.22;34.55;97773.06;5068846;28;20190;-71
2023/06/27 02:31:05;;;;;;;3.90;2.23;;;;;;;25.22;34.29;97768.50;5058672;28;20565;-70
2023/06/27 02:33:30;;;;;;;5.37;2.73;;;;;;;25.15;34.56;97773.16;5091034;28;20206;-69
2023/06/27 02:35:56;;;;;;;4.27;2.70;;;;;;;25.19;34.79;97768.97;5089866;28;21004;-69
2023/06/27 02:38:21;;;;;;;6.77;2.20;;;;;;;25.15;34.47;97770.47;5091541;28;20604;-69
2023/06/27 02:40:47;;;;;;;5.23;3.10;;;;;;;25.14;34.76;97764.28;5091274;28;20185;-69
2023/06/27 02:43:12;;;;;;;2.87;2.40;;;;;;;25.13;34.49;97767.22;5070658;28;20665;-70
2023/06/27 02:45:38;;;;;;;6.03;2.30;;;;;;;25.14;34.68;97760.81;5096454;28;20213;-70
2023/06/27 02:48:04;;;;;;;2.73;2.17;;;;;;;25.11;34.48;97763.94;5050532;28;20701;-67
2023/06/27 02:50:30;;;;;;;4.33;2.43;;;;;;;25.05;34.85;97772.94;5095742;28;20197;-70
2023/06/27 02:52:55;;;;;;;4.43;2.50;;;;;;;24.99;34.63;97780.84;5090251;28;20466;-69
2023/06/27 02:55:20;;;;;;;4.90;2.63;;;;;;;24.96;34.63;97775.94;5090118;28;20240;-70
2023/06/27 02:57:46;;;;;;;4.10;2.80;;;;;;;24.92;34.88;97774.78;5089777;28;20705;-69
2023/06/27 03:00:12;;;;;;;4.60;2.67;;;;;;;24.92;35.00;97774.78;5093839;28;20627;-69
2023/06/27 03:02:37;;;;;;;2.30;1.80;;;;;;;24.89;35.01;97769.88;5090141;28;20255;-70
2023/06/27 03:05:03;;;;;;;7.43;3.37;;;;;;;24.93;35.14;97770.22;5093471;28;20293;-70
2023/06/27 03:07:28;;;;;;;3.73;2.13;;;;;;;24.90;34.90;97770.69;5092220;28;20242;-69
2023/06/27 03:09:54;;;;;;;6.00;2.23;;;;;;;24.87;35.38;97773.84;5092640;28;20186;-69
2023/06/27 03:12:19;;;;;;;5.43;1.90;;;;;;;24.82;35.41;97774.53;5084190;28;20229;-71
2023/06/27 03:14:44;;;;;;;5.23;2.00;;;;;;;24.75;35.48;97779.19;5086243;28;20311;-70
2023/06/27 03:17:10;;;;;;;2.00;1.73;;;;;;;24.77;35.58;97777.09;5088270;28;20225;-70
2023/06/27 03:19:35;;;;;;;5.90;1.87;;;;;;;24.78;35.28;97779.53;5089586;28;20189;-70
2023/06/27 03:22:01;;;;;;;5.97;3.03;;;;;;;24.80;35.19;97779.31;5089361;28;20605;-70
2023/06/27 03:24:26;;;;;;;4.67;2.90;;;;;;;24.82;35.55;97782.59;5089601;28;20285;-69
2023/06/27 03:26:52;;;;;;;3.87;3.40;;;;;;;24.83;35.50;97779.66;5097026;28;20243;-69
2023/06/27 03:29:17;;;;;;;8.50;3.40;;;;;;;24.80;35.67;97782.78;5090581;28;20200;-68
2023/06/27 03:31:42;;;;;;;5.90;2.70;;;;;;;24.79;35.45;97778.47;5094193;28;20186;-69
2023/06/27 03:34:08;;;;;;;3.90;2.53;;;;;;;24.78;35.40;97770.69;5088963;28;20193;-69
2023/06/27 03:36:33;;;;;;;9.90;2.67;;;;;;;24.73;35.85;97781.25;5076857;28;20248;-69
2023/06/27 03:38:59;;;;;;;2.60;2.13;;;;;;;24.74;35.38;97780.22;5071603;28;20186;-70
2023/06/27 03:41:25;;;;;;;7.43;2.97;;;;;;;24.77;35.45;97788.59;5094492;28;20382;-69
2023/06/27 03:43:50;;;;;;;4.77;2.93;;;;;;;24.76;35.39;97772.78;5090363;28;20217;-69
2023/06/27 03:46:16;;;;;;;6.10;3.33;;;;;;;24.76;35.39;97780.81;5087789;28;20361;-69
2023/06/27 03:48:41;;;;;;;4.33;2.37;;;;;;;24.75;35.47;97780.00;5091958;28;20193;-69
2023/06/27 03:51:07;;;;;;;4.83;2.10;;;;;;;24.71;35.89;97780.66;5088659;28;20273;-68
2023/06/27 03:53:32;;;;;;;4.37;3.33;;;;;;;24.68;35.83;97795.31;5092748;28;20217;-69
2023/06/27 03:56:00;;;;;;;8.40;3.10;;;;;;;24.67;35.96;97789.16;5088694;28;20202;-69
2023/06/27 03:58:26;;;;;;;6.97;2.83;;;;;;;24.68;35.71;97782.75;5071119;28;20243;-71
2023/06/27 04:00:53;;;;;;;2.80;2.17;;;;;;;24.63;35.91;97781.81;5097720;28;20435;-70
2023/06/27 04:03:18;;;;;;;3.83;2.40;;;;;;;24.55;35.84;97782.97;5096355;28;20204;-68
2023/06/27 04:05:44;;;;;;;3.10;2.20;;;;;;;24.57;35.54;97785.41;5093232;28;20448;-70
2023/06/27 04:08:09;;;;;;;5.10;2.03;;;;;;;24.52;35.50;97781.53;5088380;28;20570;-69
2023/06/27 04:10:35;;;;;;;6.30;2.23;;;;;;;24.49;35.99;97783.84;5090740;28;20197;-69
2023/06/27 04:13:00;;;;;;;3.10;2.20;;;;;;;24.39;36.03;97787.91;5096382;28;20214;-70
2023/06/27 04:15:26;;;;;;;2.60;2.13;;;;;;;24.38;36.33;97794.31;5089394;28;20876;-68
2023/06/27 04:17:51;;;;;;;9.90;2.40;;;;;;;24.33;36.21;97794.16;5088130;28;20624;-69
2023/06/27 04:20:16;;;;;;;4.70;3.33;;;;;;;24.27;36.56;97789.72;5059867;28;20562;-70
2023/06/27 04:22:42;;;;;;;9.03;4.07;;;;;;;24.34;35.72;97792.31;5094740;28;20177;-68
2023/06/27 04:25:10;;;;;;;6.30;4.77;;;;;;;24.36;35.64;97788.34;5096902;28;20373;-69
2023/06/27 04:27:37;;;;;;;7.23;5.13;;;;;;;24.45;35.36;97793.38;5088223;28;20186;-69
2023/06/27 04:30:03;;;;;;;3.47;3.17;;;;;;;24.50;35.62;97796.22;5069796;28;21017;-69
2023/06/27 04:32:28;;;;;;;4.27;2.47;;;;;;;24.50;35.37;97790.84;5087985;28;20459;-69
2023/06/27 04:34:57;;;;;;;3.70;2.00;;;;;;;24.41;35.84;97792.22;5088490;28;20995;-68
2023/06/27 04:37:23;;;;;;;5.33;2.20;;;;;;;24.37;36.23;97790.00;5082609;28;20215;-69
2023/06/27 04:39:49;;;;;;;4.23;2.20;;;;;;;24.33;36.14;97793.34;5089821;28;20423;-69
2023/06/27 04:42:14;;;;;;;5.07;3.87;;;;;;;24.35;35.99;97800.13;5091819;28;20247;-69
2023/06/27 04:44:40;;;;;;;6.77;2.07;;;;;;;24.36;36.25;97798.25;5088688;28;20185;-70
2023/06/27 04:47:05;;;;;;;5.30;1.90;;;;;;;24.31;36.30;97804.31;5088038;28;20232;-69
2023/06/27 04:49:31;;;;;;;5.77;2.30;;;;;;;24.36;36.54;97798.25;5095694;28;20236;-70
2023/06/27 04:51:56;;;;;;;7.30;2.03;;;;;;;24.36;36.20;97801.75;5087948;28;20620;-69
2023/06/27 04:54:22;;;;;;;2.67;2.13;;;;;;;24.39;36.30;97806.66;5086926;28;20585;-69
2023/06/27 04:56:47;;;;;;;5.67;2.30;;;;;;;24.47;35.69;97810.03;5086613;28;20205;-69
2023/06/27 04:59:12;;;;;;;3.20;2.90;;;;;;;24.48;35.53;97812.53;5097535;28;20192;-69
2023/06/27 05:01:38;;;;;;;7.13;2.03;;;;;;;24.50;35.41;97817.63;5087647;28;20272;-68
2023/06/27 05:04:06;;;;;;;3.77;2.47;;;;;;;24.54;35.56;97818.81;5087362;28;20666;-69
2023/06/27 05:06:32;;;;;;;5.20;2.63;;;;;;;24.58;35.75;97816.50;5087636;28;20258;-68
2023/06/27 05:08:58;;;;;;;4.40;3.03;;;;;;;24.65;35.95;97820.72;5086743;28;20510;-69
2023/06/27 05:11:24;;;;;;;4.23;2.93;;;;;;;24.71;35.76;97827.06;5089122;28;20578;-69
2023/06/27 05:13:49;;;;;;;6.93;2.50;;;;;;;24.76;35.26;97829.06;5077204;28;20260;-69
2023/06/27 05:16:15;;;;;;;9.70;2.50;;;;;;;24.80;35.21;97823.00;5085043;28;20202;-70
2023/06/27 05:18:41;;;;;;;5.90;3.07;;;;;;;24.86;35.26;97821.25;5089023;28;20200;-69
2023/06/27 05:21:06;;;;;;;4.37;3.10;;;;;;;24.92;35.47;97817.69;5093508;28;20185;-67
2023/06/27 05:23:32;;;;;;;4.10;3.20;;;;;;;24.95;35.16;97819.88;5093953;28;20980;-72
2023/06/27 05:25:58;;;;;;;3.83;2.80;;;;;;;25.02;35.44;97816.28;5085438;28;20756;-68
2023/06/27 05:28:23;;;;;;;6.97;2.67;;;;;;;25.04;35.15;97817.69;5086327;28;20510;-68
2023/06/27 05:30:49;;;;;;;6.70;2.97;;;;;;;25.07;35.15;97816.41;5085455;28;20222;-69
2023/06/27 05:33:14;;;;;;;7.57;2.77;;;;;;;25.03;35.09;97818.72;5092567;28;20630;-70
2023/06/27 05:35:40;;;;;;;4.73;3.00;;;;;;;25.02;35.59;97816.28;5087818;28;20365;-68
2023/06/27 05:38:05;;;;;;;5.83;3.83;;;;;;;25.02;35.45;97821.66;5085592;28;20189;-69
2023/06/27 05:40:31;;;;;;;5.83;4.47;;;;;;;24.98;35.26;97816.75;5086690;28;20194;-69
2023/06/27 05:42:56;;;;;;;8.10;5.93;;;;;;;25.00;35.53;97822.69;5095899;28;20629;-72
2023/06/27 05:45:22;;;;;;;9.30;6.30;;;;;;;25.04;35.37;97831.09;5085534;28;20349;-69
2023/06/27 05:47:47;;;;;;;9.90;7.80;;;;;;;25.07;35.17;97829.81;5087279;28;20221;-69
2023/06/27 05:50:13;;;;;;;12.20;8.30;;;;;;;25.08;35.28;97824.22;5088163;28;20216;-69
2023/06/27 05:52:38;;;;;;;11.80;7.70;;;;;;;25.09;35.17;97827.69;5086153;28;20202;-70
2023/06/27 05:55:04;;;;;;;9.33;6.70;;;;;;;25.11;35.73;97826.44;5066631;28;20725;-69
2023/06/27 05:57:29;;;;;;;6.73;5.17;;;;;;;25.15;35.30;97832.16;5082974;28;20243;-71
2023/06/27 05:59:55;;;;;;;6.40;4.73;;;;;;;25.14;35.28;97835.88;5086953;28;20522;-70
2023/06/27 06:02:20;;;;;;;7.30;4.20;;;;;;;25.20;35.45;97834.97;5086378;28;20208;-70
2023/06/27 06:04:46;;;;;;;7.30;4.30;;;;;;;25.23;35.35;97839.84;5086031;28;20280;-70
2023/06/27 06:07:11;;;;;;;5.03;3.53;;;;;;;25.31;34.93;97836.00;5089144;28;20243;-69
2023/06/27 06:09:37;;;;;;;5.97;3.57;;;;;;;25.38;34.76;97831.38;5097433;28;20283;-69
2023/06/27 06:12:02;;;;;;;3.83;3.37;;;;;;;25.45;34.37;97828.59;5090242;28;20233;-68
2023/06/27 06:14:28;;;;;;;14.33;2.80;;;;;;;25.48;34.33;97820.06;5091253;28;20886;-72
2023/06/27 06:16:54;;;;;;;4.53;2.60;;;;;;;25.52;34.80;97820.44;5037739;28;20292;-70
2023/06/27 06:19:19;;;;;;;6.17;2.60;;;;;;;25.53;34.40;97830.09;5096087;28;20193;-69
2023/06/27 06:21:44;;;;;;;4.17;2.40;;;;;;;25.49;34.19;97832.44;5091048;28;20667;-70
2023/06/27 06:24:10;;;;;;;7.20;2.27;;;;;;;25.34;33.83;97824.81;5090803;28;20182;-71
2023/06/27 06:26:36;;;;;;;3.27;2.00;;;;;;;25.25;33.60;97820.88;5091936;28;20701;-70
2023/06/27 06:29:02;;;;;;;8.93;2.60;;;;;;;25.13;33.86;97815.47;5090295;28;20185;-69
2023/06/27 06:31:28;;;;;;;11.07;2.37;;;;;;;25.08;33.66;97821.53;5090878;28;20189;-69
2023/06/27 06:33:54;;;;;;;13.93;2.73;;;;;;;25.00;34.14;97814.66;5091096;28;20866;-69
2023/06/27 06:36:20;;;;;;;6.83;2.13;;;;;;;25.02;33.95;97827.00;5095042;28;20224;-70
2023/06/27 06:38:45;;;;;;;8.73;2.40;;;;;;;25.00;34.05;97833.41;5092382;28;20424;-72
2023/06/27 06:41:10;;;;;;;6.50;2.07;;;;;;;24.99;34.19;97834.47;5102944;28;20208;-69
2023/06/27 06:43:36;;;;;;;4.00;1.80;;;;;;;25.04;33.92;97832.97;5095386;28;20279;-70
2023/06/27 06:46:02;;;;;;;3.00;1.70;;;;;;;25.09;33.45;97839.25;5089712;28;20221;-70
2023/06/27 06:48:27;;;;;;;4.60;2.00;;;;;;;25.16;34.13;97839.16;5074664;28;20284;-68
2023/06/27 06:50:53;;;;;;;4.10;1.87;;;;;;;25.32;33.24;97832.28;5090671;28;20188;-69
2023/06/27 06:53:19;;;;;;;6.30;1.87;;;;;;;25.48;31.66;97828.09;5092600;28;20255;-69
2023/06/27 06:55:44;;;;;;;6.17;1.93;;;;;;;25.60;31.24;97831.59;5091484;28;20758;-70
2023/06/27 06:58:10;;;;;;;3.93;1.70;;;;;;;25.60;31.72;97839.66;5089916;28;20431;-69
2023/06/27 07:00:36;;;;;;;9.03;2.10;;;;;;;25.60;31.47;97844.22;5091062;28;20189;-70
2023/06/27 07:03:03;;;;;;;4.57;1.60;;;;;;;25.55;30.51;97831.50;5090382;28;20731;-69
2023/06/27 07:05:28;;;;;;;5.77;1.90;;;;;;;25.55;29.85;97826.13;5090559;28;20738;-69
2023/06/27 07:07:54;;;;;;;3.53;2.00;;;;;;;25.59;30.22;97832.66;5090060;28;20443;-69
2023/06/27 07:10:19;;;;;;;2.53;1.70;;;;;;;25.55;30.93;97831.50;5095545;28;20272;-70
2023/06/27 07:12:44;;;;;;;4.30;1.67;;;;;;;25.58;30.92;97832.91;5028454;28;20209;-70
2023/06/27 07:15:10;;;;;;;2.60;1.60;;;;;;;25.69;31.19;97832.06;5087464;28;20205;-69
2023/06/27 07:17:35;;;;;;;4.53;2.10;;;;;;;25.74;30.83;97834.88;5091026;28;20182;-69
2023/06/27 07:20:01;;;;;;;5.77;1.83;;;;;;;25.72;30.91;97836.97;5092286;28;20182;-69
2023/06/27 07:22:27;;;;;;;4.40;1.90;;;;;;;25.77;30.86;97830.91;5093890;28;20716;-69
2023/06/27 07:24:52;;;;;;;11.80;2.33;;;;;;;25.88;30.75;97823.88;5096273;28;20714;-69
2023/06/27 07:27:18;;;;;;;5.07;1.60;;;;;;;25.96;30.60;97820.81;5092835;28;20269;-70
2023/06/27 07:29:44;;;;;;;3.20;1.50;;;;;;;26.05;30.51;97824.75;5094434;28;20272;-68
2023/06/27 07:32:10;;;;;;;6.63;2.00;;;;;;;26.03;30.46;97826.88;5089325;28;20210;-68
2023/06/27 07:34:35;;;;;;;4.70;1.90;;;;;;;26.04;30.85;97823.13;5090157;28;20200;-68
2023/06/27 07:37:01;;;;;;;6.40;1.80;;;;;;;26.21;30.98;97825.09;5088663;28;20519;-71
2023/06/27 07:39:26;;;;;;;6.80;1.53;;;;;;;26.34;30.66;97829.38;5098242;28;20230;-70
2023/06/27 07:41:51;;;;;;;4.20;1.80;;;;;;;26.45;30.69;97833.91;5091195;28;20269;-69
2023/06/27 07:44:17;;;;;;;6.30;2.10;;;;;;;26.43;30.68;97830.63;5064621;28;20213;-70
2023/06/27 07:46:42;;;;;;;4.90;1.87;;;;;;;26.39;30.19;97834.84;5089350;28;20231;-70
2023/06/27 07:49:08;;;;;;;3.50;1.80;;;;;;;26.21;30.22;97828.59;5089156;28;20180;-69
2023/06/27 07:51:33;;;;;;;5.73;2.07;;;;;;;26.07;30.04;97827.22;5089699;28;20189;-71
2023/06/27 07:54:00;;;;;;;2.53;2.00;;;;;;;26.33;31.08;97830.44;5090347;28;20205;-70
2023/06/27 07:56:25;;;;;;;4.17;1.70;;;;;;;26.46;30.69;97829.31;5088895;28;20296;-70
2023/06/27 07:58:52;;;;;;;12.33;1.90;;;;;;;26.56;29.74;97834.88;5089093;28;20416;-71
2023/06/27 08:01:17;;;;;;;2.93;1.90;;;;;;;26.47;30.31;97836.34;5087698;28;20860;-69
2023/06/27 08:03:42;;;;;;;6.17;1.60;;;;;;;26.52;30.64;97842.63;5089184;28;20526;-70
2023/06/27 08:06:08;;;;;;;2.93;1.90;;;;;;;26.51;30.15;97842.88;5090091;28;20220;-71
2023/06/27 08:08:36;;;;;;;5.20;2.00;;;;;;;26.58;30.64;97842.72;5094091;28;20193;-71
2023/06/27 08:11:02;;;;;;;2.40;1.70;;;;;;;26.64;30.39;97844.44;5093027;28;20601;-71
2023/06/27 08:13:27;;;;;;;9.67;2.07;;;;;;;26.59;30.52;97828.22;5092786;28;20467;-70
2023/06/27 08:15:53;;;;;;;8.77;1.93;;;;;;;26.62;31.01;97825.88;5103369;28;20197;-70
2023/06/27 08:18:18;;;;;;;8.33;2.03;;;;;;;26.85;30.60;97820.63;5090016;28;20193;-71
2023/06/27 08:20:43;;;;;;;3.33;2.03;;;;;;;27.12;30.28;97827.00;5091430;28;20201;-70
2023/06/27 08:23:09;;;;;;;4.30;1.80;;;;;;;27.26;29.86;97822.13;5089014;28;20669;-70
2023/06/27 08:25:34;;;;;;;8.10;1.97;;;;;;;27.54;29.55;97817.69;5088831;28;20224;-71
2023/06/27 08:28:00;;;;;;;3.57;2.00;;;;;;;27.71;29.03;97812.28;5088357;28;20214;-69
2023/06/27 08:30:27;;;;;;;12.00;1.60;;;;;;;27.83;29.11;97808.66;5092475;28;20193;-70
2023/06/27 08:32:54;;;;;;;4.70;2.17;;;;;;;28.00;28.37;97803.19;5088533;28;20209;-70
2023/06/27 08:35:20;;;;;;;4.60;2.63;;;;;;;28.12;28.25;97793.13;5087852;28;20444;-70
2023/06/27 08:37:46;;;;;;;8.80;3.43;;;;;;;28.15;28.20;97795.34;5091190;28;20423;-71
2023/06/27 08:40:18;;;;;;;7.37;4.10;;;;;;;28.20;28.02;97792.69;5088985;28;20268;-70
2023/06/27 08:42:44;;;;;;;14.80;5.00;;;;;;;28.18;28.02;97785.94;5089463;28;20257;-70
2023/06/27 08:45:10;;;;;;;5.37;2.60;;;;;;;28.13;28.21;97785.84;5086891;28;20443;-69
2023/06/27 08:47:36;;;;;;;4.90;2.90;;;;;;;28.03;28.94;97781.97;5098702;28;20280;-70
2023/06/27 08:50:06;;;;;;;4.40;2.80;;;;;;;28.08;28.40;97783.91;5069945;28;20849;-71
2023/06/27 08:52:36;;;;;;;7.77;5.93;;;;;;;27.99;28.41;97780.81;5080679;28;20233;-70
2023/06/27 08:55:03;;;;;;;11.40;4.47;;;;;;;28.03;28.48;97781.97;5097339;28;20457;-70
2023/06/27 08:57:31;;;;;;;4.87;3.10;;;;;;;28.26;28.12;97780.06;5094246;28;20480;-69
2023/06/27 09:00:04;;;;;;;3.10;2.13;;;;;;;28.29;27.61;97776.09;5089149;28;20471;-70
2023/06/27 09:02:31;;;;;;;4.90;2.20;;;;;;;28.15;27.52;97789.94;5087396;28;20423;-70
2023/06/27 09:04:58;;;;;;;8.30;6.13;;;;;;;28.17;28.34;97778.91;5070469;28;20462;-70
2023/06/27 09:07:23;;;;;;;8.03;2.97;;;;;;;28.32;28.38;97781.78;5072302;28;20466;-71
2023/06/27 09:09:49;;;;;;;5.67;2.10;;;;;;;28.39;28.48;97775.34;5100989;28;20531;-72
2023/06/27 09:12:14;;;;;;;3.20;1.90;;;;;;;28.46;28.12;97773.28;5087244;28;20605;-70
2023/06/27 09:14:40;;;;;;;5.63;2.10;;;;;;;28.56;28.53;97776.06;5070059;28;20193;-70
2023/06/27 09:17:05;;;;;;;7.37;2.23;;;;;;;28.72;28.72;97774.34;5090799;28;20209;-70
2023/06/27 09:19:32;;;;;;;12.97;8.93;;;;;;;28.87;28.01;97762.06;5090617;28;20944;-69
2023/06/27 09:21:58;;;;;;;7.40;4.13;;;;;;;28.84;27.33;97767.97;5096956;28;20566;-71
2023/06/27 09:24:23;;;;;;;5.17;3.03;;;;;;;28.92;27.31;97757.50;5086846;28;20434;-71
2023/06/27 09:26:49;;;;;;;5.70;2.30;;;;;;;29.00;26.74;97761.63;5087372;28;20692;-70
2023/06/27 09:29:14;;;;;;;9.70;2.70;;;;;;;29.06;26.56;97760.56;5087310;28;20610;-70
2023/06/27 09:31:40;;;;;;;2.90;1.83;;;;;;;29.06;26.75;97765.97;5071281;28;20221;-70
2023/06/27 09:34:06;;;;;;;4.87;2.10;;;;;;;29.10;26.98;97761.69;5087803;28;20696;-69
2023/06/27 09:36:33;;;;;;;5.93;3.03;;;;;;;29.12;26.38;97764.09;5087696;28;20220;-69
2023/06/27 09:39:03;;;;;;;4.67;2.73;;;;;;;29.00;25.77;97766.19;5087969;28;20428;-71
2023/06/27 09:41:49;;;;;;;5.43;3.80;;;;;;;28.95;26.67;97770.50;5091818;28;20573;-71
2023/06/27 09:44:22;;;;;;;7.40;5.37;;;;;;;28.84;27.04;97768.78;5091711;28;20569;-70
2023/06/27 09:46:48;;;;;;;15.27;3.57;;;;;;;28.73;27.51;97761.69;5091517;28;20500;-70
2023/06/27 09:49:15;;;;;;;4.10;2.20;;;;;;;28.69;27.26;97766.72;5081854;28;20918;-69
2023/06/27 09:51:44;;;;;;;6.07;2.17;;;;;;;28.72;26.69;97768.13;5092062;28;20450;-69
2023/06/27 09:54:11;;;;;;;4.53;2.47;;;;;;;28.66;27.00;97768.06;5091914;28;20434;-70
2023/06/27 09:56:37;;;;;;;6.03;3.00;;;;;;;28.62;26.95;97766.94;5096260;28;21035;-70
2023/06/27 09:59:10;;;;;;;7.60;4.10;;;;;;;28.55;26.69;97763.66;5093243;28;20435;-71
2023/06/27 10:01:40;;;;;;;3.80;3.40;;;;;;;28.51;27.06;97765.22;5098715;28;20200;-70
2023/06/27 10:04:06;;;;;;;3.00;1.80;;;;;;;28.55;26.39;97763.66;5090013;28;20428;-70
2023/06/27 10:06:32;;;;;;;4.43;2.47;;;;;;;28.49;26.86;97764.66;5074986;28;20453;-69
2023/06/27 10:08:58;;;;;;;5.43;2.50;;;;;;;28.49;26.64;97767.34;5091283;28;20816;-70
2023/06/27 10:11:24;;;;;;;2.80;1.80;;;;;;;28.34;26.96;97765.34;5094838;28;20424;-70
2023/06/27 10:13:50;;;;;;;3.77;1.73;;;;;;;28.39;27.17;97761.88;5091739;28;20736;-70
2023/06/27 10:16:19;;;;;;;10.53;2.33;;;;;;;28.50;26.96;97758.19;5091079;28;20439;-69
2023/06/27 10:18:44;;;;;;;11.30;4.40;;;;;;;28.56;27.08;97756.38;5097718;28;20428;-71
2023/06/27 10:21:11;;;;;;;3.77;2.00;;;;;;;28.55;27.09;97757.44;5091221;28;20836;-70
2023/06/27 10:23:42;;;;;;;10.23;3.30;;;;;;;28.63;27.28;97756.97;5072976;28;20689;-71
2023/06/27 10:26:10;;;;;;;5.50;4.90;;;;;;;28.70;27.45;97756.78;5071734;28;20443;-70
2023/06/27 10:28:36;;;;;;;7.60;4.80;;;;;;;28.79;26.52;97760.66;5083744;28;20427;-70
2023/06/27 10:31:04;;;;;;;6.33;4.47;;;;;;;28.77;26.86;97754.69;5091049;28;20564;-69
2023/06/27 10:33:32;;;;;;;9.93;2.60;;;;;;;28.83;26.52;97759.06;5101211;28;20225;-68
2023/06/27 10:36:01;;;;;;;8.53;2.67;;;;;;;28.96;27.08;97755.09;5077075;28;20455;-69
2023/06/27 10:38:33;;;;;;;5.27;2.20;;;;;;;28.96;26.90;97758.63;5099133;28;20442;-69
2023/06/27 10:41:09;;;;;;;5.17;1.80;;;;;;;29.04;26.80;97764.59;5095015;28;20434;-68
2023/06/27 10:43:45;;;;;;;7.50;2.07;;;;;;;29.04;26.80;97761.91;5088666;28;20415;-69
2023/06/27 10:46:17;;;;;;;2.53;1.83;;;;;;;28.96;26.91;97761.31;5090079;28;20447;-68
2023/06/27 10:48:57;;;;;;;4.23;1.90;;;;;;;29.00;27.36;97766.19;5090334;28;20435;-69
2023/06/27 10:51:24;;;;;;;9.43;1.77;;;;;;;28.94;26.52;97763.47;5097628;28;20423;-70
2023/06/27 10:54:11;;;;;;;7.80;2.10;;;;;;;29.05;26.92;97758.13;5090325;28;20479;-70
2023/06/27 10:56:51;;;;;;;3.70;2.60;;;;;;;29.15;26.74;97752.81;5059859;28;20485;-70
2023/06/27 10:59:22;;;;;;;6.00;2.40;;;;;;;29.24;26.65;97759.31;5093052;28;20435;-70
2023/06/27 11:01:52;;;;;;;7.50;2.97;;;;;;;29.23;25.94;97768.53;5096182;28;20427;-70
2023/06/27 11:04:20;;;;;;;4.87;2.80;;;;;;;29.21;26.19;97762.56;5088231;28;20474;-70
2023/06/27 11:06:45;;;;;;;9.20;4.83;;;;;;;29.31;26.50;97761.81;5097483;28;21014;-70
2023/06/27 11:09:17;;;;;;;4.23;2.40;;;;;;;29.43;26.12;97761.63;5091359;28;20510;-70
2023/06/27 11:11:56;;;;;;;6.47;2.13;;;;;;;29.28;26.00;97771.25;5093739;28;20268;-69
2023/06/27 11:14:35;;;;;;;6.53;1.80;;;;;;;29.22;26.48;97774.16;5080393;28;20443;-71
2023/06/27 11:17:04;;;;;;;4.60;2.10;;;;;;;29.12;26.17;97766.81;5078717;28;20454;-71
2023/06/27 11:19:34;;;;;;;3.20;1.70;;;;;;;29.01;25.96;97768.63;5097688;28;21067;-71
2023/06/27 11:22:01;;;;;;;8.03;1.70;;;;;;;28.78;26.83;97761.72;5098303;28;20452;-71
2023/06/27 11:24:27;;;;;;;4.33;1.90;;;;;;;28.77;26.96;97768.19;5090491;28;20474;-70
2023/06/27 11:26:53;;;;;;;3.93;1.80;;;;;;;28.77;26.98;97766.31;5089196;28;20462;-70
2023/06/27 11:29:18;;;;;;;17.17;4.50;;;;;;;28.73;27.17;97761.69;5089557;28;20824;-70